Muar, Malaysia
Current Conditions -  °F | °C
As of 2:00 AM on Saturday 29 Nov 2014 (Local Time) from WMKM Reporting Station
Broken Clouds Broken Clouds  
Wind Chill: 75°   Ceiling: 27000
Heat Index: 75°   Visibility: 6mi
Dew Point: 73°   Wind: 2mph
Humidity: 94%   Direction: 50°NE
Pressure: 29.8"   Gusts: NA
Location:  2.04°N, 102.57°E
Report Text: WMKM 281800Z 05002KT 9999 FEW028 SCT140 BKN270 24/23 Q1009
Loading
Personal Weather Stations






























Interactive Weather Map New forecast layout! Learn more

10-Day Weather Forecast

Advertisements
Track Severe Weather on mobile